createdAt,value
2024-02-02T00:02:00.054Z,11.43
2024-02-02T00:04:28.929Z,8.50
2024-02-02T00:06:57.270Z,6.63
2024-02-02T00:09:25.646Z,14.75
2024-02-02T00:11:53.960Z,6.60
2024-02-02T00:14:23.637Z,13.20
2024-02-02T00:16:51.801Z,6.25
2024-02-02T00:19:20.328Z,7.15
2024-02-02T00:21:48.708Z,7.88
2024-02-02T00:24:16.906Z,6.63
2024-02-02T00:26:45.020Z,9.23
2024-02-02T00:29:13.725Z,10.63
2024-02-02T00:31:43.446Z,5.95
2024-02-02T00:34:11.992Z,7.40
2024-02-02T00:36:40.100Z,8.95
2024-02-02T00:39:08.231Z,7.40
2024-02-02T00:41:36.493Z,3.85
2024-02-02T00:44:07.476Z,5.53
2024-02-02T00:46:35.744Z,5.90
2024-02-02T00:49:05.522Z,7.55
2024-02-02T00:51:33.890Z,4.15
2024-02-02T00:54:02.101Z,17.60
2024-02-02T00:56:30.398Z,5.38
2024-02-02T00:58:58.522Z,8.27
2024-02-02T01:01:26.702Z,7.03
2024-02-02T01:03:54.994Z,9.02
2024-02-02T01:06:24.731Z,6.93
2024-02-02T01:08:53.283Z,5.63
2024-02-02T01:11:21.647Z,5.43
2024-02-02T01:13:49.738Z,8.23
2024-02-02T01:16:17.966Z,4.70
2024-02-02T01:18:46.256Z,5.55
2024-02-02T01:21:15.020Z,5.57
2024-02-02T01:23:44.525Z,9.70
2024-02-02T01:26:12.696Z,5.22
2024-02-02T01:28:40.943Z,6.10
2024-02-02T01:31:09.064Z,5.57
2024-02-02T01:33:37.588Z,7.55
2024-02-02T01:36:06.033Z,7.32
2024-02-02T01:38:34.224Z,5.82
2024-02-02T01:41:03.769Z,5.28
2024-02-02T01:43:31.894Z,5.13
2024-02-02T01:46:00.001Z,4.47
2024-02-02T01:48:28.334Z,5.80
2024-02-02T01:50:56.678Z,3.13
2024-02-02T01:53:24.936Z,3.42
2024-02-02T01:55:53.137Z,2.95
2024-02-02T01:58:22.905Z,3.00
2024-02-02T02:00:51.083Z,2.53
2024-02-02T02:03:19.644Z,2.67
2024-02-02T02:05:47.903Z,2.42
2024-02-02T02:08:16.180Z,3.70
2024-02-02T02:10:46.282Z,2.17
2024-02-02T02:13:14.684Z,2.65
2024-02-02T02:15:44.428Z,2.20
2024-02-02T02:18:12.740Z,1.42
2024-02-02T02:20:41.924Z,1.55
2024-02-02T02:23:12.148Z,4.40
2024-02-02T02:25:40.963Z,1.83
2024-02-02T02:28:09.117Z,1.45
2024-02-02T02:30:37.409Z,2.25
2024-02-02T02:33:06.740Z,2.10
2024-02-02T02:35:35.153Z,1.67
2024-02-02T02:38:03.359Z,1.30
2024-02-02T02:40:32.901Z,1.00
2024-02-02T02:43:01.616Z,1.65
2024-02-02T02:45:29.902Z,1.42
2024-02-02T02:47:58.260Z,1.35
2024-02-02T02:50:26.474Z,2.35
2024-02-02T02:52:54.643Z,1.48
2024-02-02T02:55:22.873Z,1.60
2024-02-02T02:57:54.467Z,1.08
2024-02-02T03:00:28.735Z,2.60
2024-02-02T03:02:57.261Z,2.20
2024-02-02T03:05:26.327Z,1.77
2024-02-02T03:07:54.782Z,1.63
2024-02-02T03:10:23.352Z,1.02
2024-02-02T03:12:53.073Z,1.10
2024-02-02T03:15:21.247Z,1.20
2024-02-02T03:17:50.338Z,1.45
2024-02-02T03:20:18.855Z,1.45
2024-02-02T03:22:47.371Z,1.42
2024-02-02T03:25:15.732Z,1.50
2024-02-02T03:27:43.942Z,3.42
2024-02-02T03:30:15.345Z,2.75
2024-02-02T03:35:12.602Z,1.38
2024-02-02T03:37:40.820Z,1.40
2024-02-02T03:40:10.328Z,1.70
2024-02-02T03:42:38.597Z,2.65
2024-02-02T03:45:08.588Z,1.50
2024-02-02T03:47:38.317Z,1.65
2024-02-02T03:50:07.163Z,2.25
2024-02-02T03:52:35.496Z,2.35
2024-02-02T03:55:04.340Z,1.52
2024-02-02T03:57:32.612Z,1.73
2024-02-02T04:00:00.898Z,1.50
2024-02-02T04:02:29.087Z,1.60
2024-02-02T04:04:58.748Z,3.10
2024-02-02T04:07:26.909Z,1.30
2024-02-02T04:09:55.058Z,3.80
2024-02-02T04:12:23.182Z,0.70
2024-02-02T04:14:51.497Z,2.05
2024-02-02T04:17:18.675Z,0.95
2024-02-02T04:19:46.850Z,1.48
2024-02-02T04:22:18.214Z,0.73
2024-02-02T04:24:46.575Z,0.60
2024-02-02T04:27:14.944Z,0.73
2024-02-02T04:29:43.188Z,1.33
2024-02-02T04:32:11.323Z,0.73
2024-02-02T04:34:39.667Z,0.50
2024-02-02T04:37:07.915Z,0.60
2024-02-02T04:39:37.546Z,0.93
2024-02-02T04:42:07.363Z,0.60
2024-02-02T04:44:36.869Z,0.60
2024-02-02T04:47:05.496Z,0.70
2024-02-02T04:49:34.057Z,1.27
2024-02-02T04:52:02.332Z,2.35
2024-02-02T04:54:30.706Z,0.60
2024-02-02T04:57:00.345Z,0.73
2024-02-02T04:59:28.517Z,0.60
2024-02-02T05:01:56.858Z,2.72
2024-02-02T05:04:25.378Z,4.28
2024-02-02T05:06:53.875Z,0.45
2024-02-02T05:09:22.703Z,0.40
2024-02-02T05:11:50.917Z,0.40
2024-02-02T05:14:20.482Z,1.38
2024-02-02T05:16:48.808Z,1.80
2024-02-02T05:19:17.334Z,0.52
2024-02-02T05:21:45.664Z,1.65
2024-02-02T05:24:26.343Z,0.60
2024-02-02T05:27:01.994Z,0.40
2024-02-02T05:29:31.976Z,1.65
2024-02-02T05:32:00.313Z,0.40
2024-02-02T05:34:28.566Z,1.45
2024-02-02T05:36:56.751Z,0.40
2024-02-02T05:39:24.885Z,1.40
2024-02-02T05:41:53.483Z,0.68
2024-02-02T05:44:21.658Z,0.30
2024-02-02T05:46:51.218Z,0.43
2024-02-02T05:49:19.538Z,0.65
2024-02-02T05:51:47.824Z,0.32
2024-02-02T05:54:16.178Z,0.32
2024-02-02T05:56:44.335Z,0.30
2024-02-02T05:59:12.456Z,1.35
2024-02-02T06:01:40.749Z,2.05
2024-02-02T06:04:10.804Z,1.98
2024-02-02T06:06:39.179Z,2.60
2024-02-02T06:09:07.601Z,0.40
2024-02-02T06:11:35.837Z,0.85
2024-02-02T06:14:03.942Z,4.03
2024-02-02T06:16:32.135Z,0.60
2024-02-02T06:19:00.473Z,2.10
2024-02-02T06:21:30.253Z,2.65
2024-02-02T06:23:58.607Z,0.43
2024-02-02T06:26:26.785Z,0.95
2024-02-02T06:28:55.124Z,2.20
2024-02-02T06:31:25.576Z,0.85
2024-02-02T06:33:54.136Z,0.93
2024-02-02T06:36:26.087Z,1.05
2024-02-02T06:38:57.532Z,0.32
2024-02-02T06:41:25.712Z,1.98
2024-02-02T06:43:53.904Z,1.55
2024-02-02T06:46:22.183Z,0.20
2024-02-02T06:48:50.632Z,2.38
2024-02-02T06:51:18.988Z,1.83
2024-02-02T06:53:47.935Z,0.47
2024-02-02T06:56:38.945Z,1.48
2024-02-02T06:59:08.146Z,2.13
2024-02-02T07:01:36.827Z,1.85
2024-02-02T07:04:05.407Z,0.47
2024-02-02T07:06:34.736Z,0.30
2024-02-02T07:09:08.191Z,0.98
2024-02-02T07:12:00.752Z,4.97
2024-02-02T07:15:01.084Z,1.55
2024-02-02T07:17:37.696Z,1.90
2024-02-02T07:20:11.348Z,0.88
2024-02-02T07:22:40.667Z,1.73
2024-02-02T07:25:10.730Z,1.25
2024-02-02T07:28:04.446Z,1.40
2024-02-02T07:30:50.901Z,0.40
2024-02-02T07:33:27.837Z,0.63
2024-02-02T07:35:59.587Z,5.93
2024-02-02T07:38:50.720Z,2.25
2024-02-02T07:41:20.183Z,2.45
2024-02-02T07:43:49.772Z,1.95
2024-02-02T07:46:18.619Z,1.75
2024-02-02T07:48:49.387Z,3.65
2024-02-02T07:51:19.592Z,2.75
2024-02-02T07:53:48.486Z,1.50
2024-02-02T07:56:19.275Z,1.40
2024-02-02T07:58:47.595Z,2.53
2024-02-02T08:01:17.312Z,1.08
2024-02-02T08:03:45.620Z,1.77
2024-02-02T08:06:14.802Z,0.47
2024-02-02T08:08:43.580Z,0.75
2024-02-02T08:11:11.752Z,2.03
2024-02-02T08:13:39.873Z,4.32
2024-02-02T08:16:08.312Z,2.58
2024-02-02T08:18:40.208Z,1.60
2024-02-02T08:21:09.471Z,2.25
2024-02-02T08:23:38.823Z,5.93
2024-02-02T08:26:07.791Z,1.52
2024-02-02T08:28:45.289Z,1.58
2024-02-02T08:31:20.014Z,1.10
2024-02-02T08:33:49.676Z,2.65
2024-02-02T08:36:19.602Z,2.75
2024-02-02T08:38:47.983Z,2.20
2024-02-02T08:41:17.831Z,0.93
2024-02-02T08:43:48.961Z,1.55
2024-02-02T08:46:22.224Z,1.70
2024-02-02T08:48:55.852Z,0.63
2024-02-02T08:51:50.947Z,1.50
2024-02-02T08:54:39.998Z,1.55
2024-02-02T08:57:36.010Z,0.90
2024-02-02T09:00:15.211Z,5.28
2024-02-02T09:02:55.396Z,0.60
2024-02-02T09:05:26.692Z,1.08
2024-02-02T09:08:12.316Z,2.75
2024-02-02T09:11:24.665Z,2.90
2024-02-02T09:14:09.301Z,0.45
2024-02-02T09:16:46.084Z,5.78
2024-02-02T09:19:29.236Z,4.90
2024-02-02T09:22:00.721Z,3.95
2024-02-02T09:24:41.482Z,1.55
2024-02-02T09:27:13.104Z,1.55
2024-02-02T09:29:46.473Z,2.45
2024-02-02T09:32:16.620Z,1.98
2024-02-02T09:34:45.113Z,1.48
2024-02-02T09:37:23.678Z,1.50
2024-02-02T09:39:56.921Z,3.65
2024-02-02T09:42:53.578Z,0.40
2024-02-02T09:45:48.124Z,1.00
2024-02-02T09:48:39.060Z,4.15
2024-02-02T09:51:19.636Z,1.13
2024-02-02T09:54:19.679Z,0.65
2024-02-02T09:56:59.140Z,1.00
2024-02-02T09:59:37.790Z,1.10
2024-02-02T10:02:36.869Z,1.90
2024-02-02T10:05:14.967Z,1.08
2024-02-02T10:07:59.778Z,0.20
2024-02-02T10:10:49.032Z,1.17
2024-02-02T10:13:33.815Z,0.20
2024-02-02T10:16:15.195Z,0.20
2024-02-02T10:19:00.511Z,0.70
2024-02-02T10:21:40.969Z,0.20
2024-02-02T10:24:33.375Z,0.50
2024-02-02T10:27:18.660Z,0.35
2024-02-02T10:29:56.754Z,1.08
2024-02-02T10:32:58.485Z,0.50
2024-02-02T10:35:37.734Z,0.75
2024-02-02T10:38:20.534Z,3.13
2024-02-02T10:40:58.396Z,1.02
2024-02-02T10:43:44.549Z,1.08
2024-02-02T10:46:24.248Z,0.60
2024-02-02T10:49:27.327Z,0.82
2024-02-02T10:52:05.740Z,2.28
2024-02-02T10:54:52.336Z,1.13
2024-02-02T10:57:28.454Z,0.40
2024-02-02T11:00:08.881Z,2.13
2024-02-02T11:02:53.045Z,0.68
2024-02-02T11:05:30.816Z,1.60
2024-02-02T11:08:03.535Z,0.40
2024-02-02T11:10:36.422Z,0.50
2024-02-02T11:13:15.744Z,1.08
2024-02-02T11:15:56.951Z,2.15
2024-02-02T11:18:42.432Z,0.40
2024-02-02T11:21:26.126Z,1.08
2024-02-02T11:24:03.370Z,1.00
2024-02-02T11:26:40.371Z,1.30
2024-02-02T11:29:27.592Z,1.65
2024-02-02T11:32:04.637Z,1.10
2024-02-02T11:34:40.835Z,0.50
2024-02-02T11:37:19.421Z,0.30
2024-02-02T11:40:00.435Z,0.60
2024-02-02T11:42:30.982Z,0.52
2024-02-02T11:45:02.224Z,0.88
2024-02-02T11:50:06.680Z,1.70
2024-02-02T11:52:42.412Z,1.48
2024-02-02T11:55:17.644Z,7.35
2024-02-02T11:57:51.245Z,0.52
2024-02-02T12:00:32.907Z,0.70
2024-02-02T12:05:48.166Z,1.30
2024-02-02T12:08:29.507Z,0.60
2024-02-02T12:10:59.474Z,0.40
2024-02-02T12:13:32.596Z,2.08
2024-02-02T12:16:01.076Z,2.80
2024-02-02T12:18:30.694Z,4.50
2024-02-02T12:20:58.959Z,6.28
2024-02-02T12:23:27.365Z,2.10
2024-02-02T12:25:55.687Z,3.25
2024-02-02T12:28:23.856Z,0.70
2024-02-02T12:30:52.232Z,0.52
2024-02-02T12:33:22.595Z,0.50
2024-02-02T12:35:53.366Z,0.75
2024-02-02T12:38:23.189Z,1.60
2024-02-02T12:40:51.440Z,1.70
2024-02-02T12:43:25.151Z,0.50
2024-02-02T12:45:53.479Z,3.20
2024-02-02T12:48:22.409Z,1.10
2024-02-02T12:50:52.433Z,2.22
2024-02-02T12:53:21.447Z,3.30
2024-02-02T12:55:50.356Z,0.63
2024-02-02T12:58:18.671Z,0.43
2024-02-02T13:00:46.944Z,1.38
2024-02-02T13:03:15.293Z,1.20
2024-02-02T13:05:44.054Z,0.68
2024-02-02T13:08:14.270Z,2.83
2024-02-02T13:10:48.753Z,1.45
2024-02-02T13:13:24.886Z,0.40
2024-02-02T13:15:53.198Z,2.90
2024-02-02T13:18:22.731Z,0.70
2024-02-02T13:20:54.642Z,1.08
2024-02-02T13:23:31.861Z,1.23
2024-02-02T13:26:05.087Z,0.77
2024-02-02T13:28:40.275Z,1.70
2024-02-02T13:31:14.803Z,1.42
2024-02-02T13:33:46.317Z,0.32
2024-02-02T13:36:18.324Z,0.70
2024-02-02T13:38:48.874Z,1.08
2024-02-02T13:41:22.126Z,0.55
2024-02-02T13:43:58.475Z,0.77
2024-02-02T13:46:27.009Z,0.60
2024-02-02T13:48:59.677Z,0.98
2024-02-02T13:51:29.953Z,0.93
2024-02-02T13:53:59.932Z,2.42
2024-02-02T13:56:29.772Z,1.05
2024-02-02T13:58:58.242Z,4.65
2024-02-02T14:01:30.409Z,0.50
2024-02-02T14:03:59.995Z,0.68
2024-02-02T14:06:28.331Z,1.88
2024-02-02T14:08:57.372Z,2.45
2024-02-02T14:11:27.964Z,2.60
2024-02-02T14:13:58.641Z,1.50
2024-02-02T14:16:27.806Z,1.27
2024-02-02T14:19:02.699Z,0.77
2024-02-02T14:21:32.764Z,3.45
2024-02-02T14:24:09.917Z,1.30
2024-02-02T14:26:50.208Z,3.10
2024-02-02T14:29:18.748Z,1.10
2024-02-02T14:31:47.406Z,4.10
2024-02-02T14:34:15.799Z,0.40
2024-02-02T14:36:44.306Z,2.90
2024-02-02T14:39:14.915Z,2.55
2024-02-02T14:41:43.194Z,2.00
2024-02-02T14:44:13.397Z,1.40
2024-02-02T14:46:41.603Z,1.05
2024-02-02T14:49:10.411Z,3.67
2024-02-02T14:51:38.924Z,0.88
2024-02-02T14:54:07.947Z,1.90
2024-02-02T14:56:36.512Z,2.33
2024-02-02T14:59:09.561Z,1.40
2024-02-02T15:01:40.274Z,3.67
2024-02-02T15:04:09.808Z,1.37
2024-02-02T15:06:39.915Z,3.75
2024-02-02T15:09:14.079Z,2.65
2024-02-02T15:11:43.668Z,0.60
2024-02-02T15:14:13.853Z,1.77
2024-02-02T15:16:43.457Z,3.72
2024-02-02T15:19:11.860Z,1.73
2024-02-02T15:21:40.376Z,2.65
2024-02-02T15:24:08.870Z,4.47
2024-02-02T15:26:38.166Z,4.53
2024-02-02T15:29:06.345Z,2.45
2024-02-02T15:31:35.146Z,2.67
2024-02-02T15:34:07.700Z,5.80
2024-02-02T15:36:37.421Z,1.65
2024-02-02T15:39:19.119Z,5.05
2024-02-02T15:41:55.319Z,17.38
2024-02-02T15:44:23.576Z,4.35
2024-02-02T15:46:51.867Z,2.53
2024-02-02T15:49:21.801Z,1.90
2024-02-02T15:51:50.053Z,3.80
2024-02-02T15:54:18.238Z,2.70
2024-02-02T15:56:46.441Z,6.32
2024-02-02T15:59:16.326Z,5.65
2024-02-02T16:01:47.439Z,12.98
2024-02-02T16:04:16.721Z,7.53
2024-02-02T16:06:46.559Z,7.70
2024-02-02T16:09:15.047Z,14.73
2024-02-02T16:11:43.294Z,8.23
2024-02-02T16:14:11.419Z,9.57
2024-02-02T16:16:39.589Z,8.73
2024-02-02T16:19:09.235Z,12.05
2024-02-02T16:21:37.485Z,14.45
2024-02-02T16:24:09.877Z,6.13
2024-02-02T16:26:39.440Z,9.68
2024-02-02T16:29:07.693Z,6.43
2024-02-02T16:31:35.778Z,13.35
2024-02-02T16:34:04.668Z,7.00
2024-02-02T16:36:33.122Z,10.70
2024-02-02T16:39:01.386Z,8.23
2024-02-02T16:41:30.881Z,6.32
2024-02-02T16:43:58.984Z,6.57
2024-02-02T16:46:27.159Z,9.68
2024-02-02T16:48:55.393Z,10.50
2024-02-02T16:51:23.599Z,18.80
2024-02-02T16:53:51.845Z,11.82
2024-02-02T16:56:21.151Z,9.48
2024-02-02T16:58:50.715Z,6.82
2024-02-02T17:01:29.838Z,8.65
2024-02-02T17:03:58.413Z,9.27
2024-02-02T17:06:26.860Z,9.90
2024-02-02T17:08:55.499Z,9.80
2024-02-02T17:11:24.025Z,7.40
2024-02-02T17:13:53.901Z,7.82
2024-02-02T17:16:22.786Z,7.72
2024-02-02T17:18:51.104Z,5.68
2024-02-02T17:21:19.400Z,7.30
2024-02-02T17:23:47.664Z,7.03
2024-02-02T17:26:16.352Z,4.47
2024-02-02T17:28:44.819Z,6.72
2024-02-02T17:31:15.759Z,8.07
2024-02-02T17:33:44.612Z,9.50
2024-02-02T17:36:14.473Z,4.90
2024-02-02T17:38:43.097Z,10.93
2024-02-02T17:41:15.767Z,16.83
2024-02-02T17:43:44.994Z,12.57
2024-02-02T17:46:16.893Z,7.88
2024-02-02T17:48:47.483Z,6.53
2024-02-02T17:51:20.258Z,8.27
2024-02-02T17:53:48.586Z,11.00
2024-02-02T17:56:18.444Z,56.75
2024-02-02T17:58:47.605Z,17.05
2024-02-02T18:01:18.403Z,7.10
2024-02-02T18:03:47.406Z,4.22
2024-02-02T18:06:15.911Z,4.47
2024-02-02T18:08:44.246Z,10.13
2024-02-02T18:11:12.465Z,4.70
2024-02-02T18:13:40.570Z,4.97
2024-02-02T18:16:10.430Z,6.78
2024-02-02T18:18:41.536Z,7.32
2024-02-02T18:21:10.802Z,5.68
2024-02-02T18:23:39.096Z,9.55
2024-02-02T18:26:07.420Z,9.43
2024-02-02T18:28:35.584Z,8.40
2024-02-02T18:31:04.543Z,13.68
2024-02-02T18:33:32.897Z,49.97
2024-02-02T18:36:03.414Z,50.17
2024-02-02T18:38:33.990Z,29.48
2024-02-02T18:41:02.183Z,17.93
2024-02-02T18:43:30.366Z,18.25
2024-02-02T18:45:58.535Z,13.85
2024-02-02T18:48:27.845Z,14.60
2024-02-02T18:50:56.100Z,10.13
2024-02-02T18:53:25.613Z,8.15
2024-02-02T18:55:53.867Z,7.70
2024-02-02T18:58:31.888Z,7.53
2024-02-02T19:01:04.295Z,11.63
2024-02-02T19:03:32.849Z,8.23
2024-02-02T19:06:02.321Z,7.00
2024-02-02T19:08:31.960Z,10.85
2024-02-02T19:11:02.411Z,7.30
2024-02-02T19:13:30.610Z,6.32
2024-02-02T19:15:59.056Z,7.57
2024-02-02T19:18:27.376Z,6.78
2024-02-02T19:20:55.624Z,10.15
2024-02-02T19:23:23.827Z,10.35
2024-02-02T19:25:53.437Z,4.55
2024-02-02T19:28:21.705Z,9.02
2024-02-02T19:30:50.967Z,5.13
2024-02-02T19:33:19.455Z,7.18
2024-02-02T19:35:48.884Z,8.50
2024-02-02T19:38:17.304Z,13.48
2024-02-02T19:40:45.700Z,6.80
2024-02-02T19:43:15.420Z,8.20
2024-02-02T19:45:46.851Z,5.70
2024-02-02T19:50:43.373Z,5.65
2024-02-02T19:53:12.094Z,3.47
2024-02-02T19:55:40.230Z,7.90
2024-02-02T19:58:08.353Z,8.15
2024-02-02T20:00:40.011Z,3.65
2024-02-02T20:03:08.984Z,5.85
2024-02-02T20:05:37.237Z,3.80
2024-02-02T20:08:08.483Z,9.18
2024-02-02T20:10:39.815Z,5.65
2024-02-02T20:13:09.078Z,5.15
2024-02-02T20:15:38.772Z,6.65
2024-02-02T20:18:07.673Z,8.73
2024-02-02T20:20:36.316Z,3.60
2024-02-02T20:23:04.494Z,5.70
2024-02-02T20:25:34.301Z,2.03
2024-02-02T20:28:04.599Z,5.70
2024-02-02T20:30:34.509Z,3.45
2024-02-02T20:33:04.455Z,2.10
2024-02-02T20:35:33.187Z,7.40
2024-02-02T20:38:01.607Z,2.67
2024-02-02T20:40:29.918Z,3.42
2024-02-02T20:42:59.043Z,4.60
2024-02-02T20:45:27.425Z,3.53
2024-02-02T20:47:55.681Z,3.45
2024-02-02T20:50:26.855Z,3.88
2024-02-02T20:52:55.283Z,1.35
2024-02-02T20:55:23.784Z,2.40
2024-02-02T20:57:52.048Z,1.15
2024-02-02T21:00:20.911Z,1.98
2024-02-02T21:02:49.174Z,1.90
2024-02-02T21:05:17.387Z,4.25
2024-02-02T21:07:47.169Z,4.00
2024-02-02T21:10:15.965Z,3.67
2024-02-02T21:12:44.147Z,3.13
2024-02-02T21:15:12.503Z,3.45
2024-02-02T21:17:46.271Z,2.72
2024-02-02T21:20:14.889Z,4.15
2024-02-02T21:22:43.158Z,2.30
2024-02-02T21:25:12.922Z,2.38
2024-02-02T21:27:41.160Z,2.75
2024-02-02T21:30:10.947Z,1.55
2024-02-02T21:32:39.139Z,2.35
2024-02-02T21:35:08.477Z,1.60
2024-02-02T21:37:36.682Z,3.20
2024-02-02T21:40:06.033Z,3.08
2024-02-02T21:42:35.562Z,2.15
2024-02-02T21:45:03.916Z,10.32
2024-02-02T21:47:32.124Z,4.93
2024-02-02T21:50:01.111Z,3.58
2024-02-02T21:52:29.566Z,3.45
2024-02-02T21:54:57.941Z,2.53
2024-02-02T21:57:26.166Z,1.50
2024-02-02T21:59:55.763Z,4.97
2024-02-02T22:02:23.962Z,2.05
2024-02-02T22:04:54.322Z,2.58
2024-02-02T22:07:22.729Z,3.60
2024-02-02T22:09:51.032Z,1.60
2024-02-02T22:12:19.163Z,1.27
2024-02-02T22:14:50.205Z,2.22
2024-02-02T22:17:20.188Z,1.67
2024-02-02T22:19:48.502Z,2.13
2024-02-02T22:22:16.697Z,1.98
2024-02-02T22:24:45.203Z,2.05
2024-02-02T22:27:15.282Z,4.82
2024-02-02T22:29:44.875Z,2.63
2024-02-02T22:32:19.789Z,3.10
2024-02-02T22:34:50.073Z,1.52
2024-02-02T22:37:18.386Z,3.78
2024-02-02T22:39:46.649Z,2.55
2024-02-02T22:42:14.981Z,1.23
2024-02-02T22:44:43.141Z,5.18
2024-02-02T22:47:11.298Z,8.48
2024-02-02T22:49:39.558Z,11.32
2024-02-02T22:52:09.375Z,9.93
2024-02-02T22:54:37.612Z,12.93
2024-02-02T22:57:06.130Z,6.18
2024-02-02T22:59:34.231Z,5.18
2024-02-02T23:02:02.549Z,2.90
2024-02-02T23:04:30.772Z,2.70
2024-02-02T23:06:58.941Z,2.38
2024-02-02T23:09:28.527Z,2.20
2024-02-02T23:11:56.847Z,2.60
2024-02-02T23:14:25.047Z,2.60
2024-02-02T23:16:53.244Z,4.80
2024-02-02T23:19:21.656Z,2.35
2024-02-02T23:21:49.889Z,1.63
2024-02-02T23:24:18.212Z,3.63
2024-02-02T23:26:47.797Z,5.07
2024-02-02T23:29:15.914Z,3.97
2024-02-02T23:31:43.998Z,3.60
2024-02-02T23:34:12.313Z,2.63
2024-02-02T23:36:40.631Z,3.00
2024-02-02T23:39:10.165Z,2.58
2024-02-02T23:41:38.472Z,2.35
2024-02-02T23:44:08.347Z,3.15
2024-02-02T23:46:36.922Z,1.40
2024-02-02T23:49:05.903Z,1.55
2024-02-02T23:51:34.250Z,4.38
2024-02-02T23:54:02.797Z,1.20
2024-02-02T23:56:31.225Z,1.63
2024-02-02T23:58:59.299Z,5.25
